createdAt,value
2023-04-25T00:00:54.346Z,76.62
2023-04-25T00:03:22.171Z,75.11
2023-04-25T00:05:50.045Z,74.78
2023-04-25T00:08:16.888Z,75.13
2023-04-25T00:10:43.752Z,75.78
2023-04-25T00:13:12.396Z,78.68
2023-04-25T00:15:39.770Z,82.71
2023-04-25T00:18:07.856Z,82.62
2023-04-25T00:20:34.719Z,84.44
2023-04-25T00:23:01.352Z,85.83
2023-04-25T00:25:28.097Z,85.00
2023-04-25T00:27:54.684Z,83.56
2023-04-25T00:30:21.365Z,85.40
2023-04-25T00:32:48.067Z,85.78
2023-04-25T00:35:16.329Z,87.02
2023-04-25T00:37:42.993Z,84.59
2023-04-25T00:40:10.452Z,85.54
2023-04-25T00:42:38.064Z,84.45
2023-04-25T00:45:06.370Z,83.00
2023-04-25T00:47:34.052Z,81.81
2023-04-25T00:50:00.773Z,81.93
2023-04-25T00:52:28.859Z,81.20
2023-04-25T00:54:55.789Z,81.51
2023-04-25T00:57:22.486Z,81.91
2023-04-25T00:59:50.253Z,85.53
2023-04-25T01:02:17.744Z,85.33
2023-04-25T01:04:44.501Z,87.79
2023-04-25T01:16:25.975Z,88.42
2023-04-25T01:18:52.847Z,88.29
2023-04-25T01:24:16.881Z,85.58
2023-04-25T01:26:50.756Z,85.35
2023-04-25T01:29:22.097Z,87.41
2023-04-25T01:31:49.220Z,88.04
2023-04-25T01:34:16.081Z,88.04
2023-04-25T01:36:42.796Z,86.17
2023-04-25T01:39:10.262Z,85.79
2023-04-25T01:41:38.291Z,87.18
2023-04-25T01:44:05.103Z,87.05
2023-04-25T01:46:32.021Z,84.69
2023-04-25T01:48:58.774Z,85.89
2023-04-25T01:51:26.190Z,87.23
2023-04-25T01:53:53.428Z,85.07
2023-04-25T01:56:21.322Z,83.86
2023-04-25T01:58:49.542Z,83.49
2023-04-25T02:01:34.596Z,82.68
2023-04-25T02:04:15.625Z,88.97
2023-04-25T02:06:42.595Z,90.99
2023-04-25T02:09:09.417Z,90.71
2023-04-25T02:11:40.979Z,89.39
2023-04-25T02:14:25.178Z,89.14
2023-04-25T02:17:15.102Z,89.38
2023-04-25T02:19:41.891Z,90.13
2023-04-25T02:22:08.504Z,90.00
2023-04-25T02:24:35.862Z,89.98
2023-04-25T02:27:02.612Z,89.87
2023-04-25T02:29:30.907Z,90.35
2023-04-25T02:31:57.749Z,90.12
2023-04-25T02:34:25.958Z,91.72
2023-04-25T02:36:52.679Z,91.54
2023-04-25T02:39:19.699Z,91.66
2023-04-25T02:41:46.418Z,89.24
2023-04-25T02:44:13.124Z,88.10
2023-04-25T02:46:41.126Z,85.90
2023-04-25T02:49:07.950Z,86.50
2023-04-25T02:51:35.479Z,86.16
2023-04-25T02:54:02.203Z,86.57
2023-04-25T02:56:29.422Z,87.65
2023-04-25T02:58:56.168Z,90.82
2023-04-25T03:01:23.058Z,92.76
2023-04-25T03:03:51.461Z,93.05
2023-04-25T03:06:18.331Z,91.99
2023-04-25T03:08:45.087Z,91.54
2023-04-25T03:11:11.837Z,93.16
2023-04-25T03:13:38.564Z,92.93
2023-04-25T03:16:06.484Z,93.17
2023-04-25T03:18:33.159Z,90.17
2023-04-25T03:21:01.272Z,90.24
2023-04-25T03:23:28.026Z,90.35
2023-04-25T03:25:55.343Z,90.21
2023-04-25T03:28:22.054Z,90.34
2023-04-25T03:30:48.869Z,89.45
2023-04-25T03:33:15.610Z,89.71
2023-04-25T03:35:43.651Z,89.20
2023-04-25T03:38:12.169Z,88.97
2023-04-25T03:40:40.602Z,91.12
2023-04-25T03:43:27.569Z,91.37
2023-04-25T03:46:00.047Z,92.42
2023-04-25T03:48:27.050Z,92.66
2023-04-25T03:50:54.506Z,92.47
2023-04-25T03:53:22.627Z,92.16
2023-04-25T03:56:07.830Z,92.98
2023-04-25T03:58:36.895Z,93.47
2023-04-25T04:01:08.298Z,93.53
2023-04-25T04:03:37.837Z,93.06
2023-04-25T04:06:05.424Z,94.96
2023-04-25T04:08:35.652Z,95.34
2023-04-25T04:11:03.563Z,95.53
2023-04-25T04:13:30.825Z,95.67
2023-04-25T04:15:58.523Z,95.76
2023-04-25T04:18:25.397Z,94.72
2023-04-25T04:20:53.090Z,92.52
2023-04-25T04:23:20.631Z,91.68
2023-04-25T04:25:49.223Z,90.85
2023-04-25T04:28:34.154Z,91.60
2023-04-25T04:31:39.379Z,91.55
2023-04-25T04:34:07.130Z,90.76
2023-04-25T04:36:35.411Z,90.75
2023-04-25T04:39:03.108Z,90.54
2023-04-25T04:41:40.870Z,90.35
2023-04-25T04:44:31.724Z,89.70
2023-04-25T04:47:24.797Z,90.31
2023-04-25T04:50:14.183Z,90.83
2023-04-25T04:53:14.441Z,90.22
2023-04-25T04:55:42.267Z,90.35
2023-04-25T04:58:24.189Z,92.02
2023-04-25T05:01:23.373Z,92.95
2023-04-25T05:04:19.244Z,93.08
2023-04-25T05:06:57.777Z,91.27
2023-04-25T05:09:26.732Z,92.95
2023-04-25T05:12:12.272Z,93.98
2023-04-25T05:14:59.475Z,94.40
2023-04-25T05:17:52.229Z,94.87
2023-04-25T05:20:28.341Z,94.79
2023-04-25T05:23:01.168Z,94.46
2023-04-25T05:25:54.166Z,95.66
2023-04-25T05:28:31.565Z,95.47
2023-04-25T05:31:19.949Z,94.31
2023-04-25T05:33:52.530Z,94.93
2023-04-25T05:36:20.805Z,95.00
2023-04-25T05:38:47.806Z,95.50
2023-04-25T05:41:14.492Z,95.70
2023-04-25T05:44:04.242Z,95.62
2023-04-25T05:46:32.326Z,94.61
2023-04-25T05:49:19.495Z,94.03
2023-04-25T05:51:58.287Z,92.45
2023-04-25T05:54:43.607Z,94.48
2023-04-25T05:57:19.109Z,93.08
2023-04-25T05:59:45.923Z,93.36
2023-04-25T06:02:15.461Z,92.45
2023-04-25T06:04:43.046Z,93.24
2023-04-25T06:07:09.796Z,93.38
2023-04-25T06:09:37.035Z,91.54
2023-04-25T06:12:04.153Z,91.91
2023-04-25T06:14:31.533Z,91.31
2023-04-25T06:16:58.501Z,92.56
2023-04-25T06:19:28.305Z,92.24
2023-04-25T06:21:55.053Z,89.84
2023-04-25T06:24:21.899Z,89.68
2023-04-25T06:26:48.662Z,90.44
2023-04-25T06:29:15.902Z,90.31
2023-04-25T06:31:42.832Z,90.37
2023-04-25T06:34:10.310Z,89.77
2023-04-25T06:36:42.527Z,89.19
2023-04-25T06:39:12.331Z,88.97
2023-04-25T06:41:39.023Z,88.74
2023-04-25T06:44:08.044Z,88.16
2023-04-25T06:46:49.721Z,85.43
2023-04-25T06:49:16.524Z,87.34
2023-04-25T06:51:44.904Z,86.41
2023-04-25T06:54:11.583Z,87.55
2023-04-25T06:56:45.764Z,85.16
2023-04-25T06:59:14.409Z,87.73
2023-04-25T07:01:42.698Z,85.74
2023-04-25T07:04:15.192Z,85.92
2023-04-25T07:06:50.364Z,86.78
2023-04-25T07:09:21.348Z,87.14
2023-04-25T07:11:49.734Z,86.75
2023-04-25T07:14:16.442Z,86.73
2023-04-25T07:16:43.277Z,85.79
2023-04-25T07:19:11.001Z,86.43
2023-04-25T07:21:38.134Z,84.38
2023-04-25T07:24:07.765Z,84.41
2023-04-25T07:26:39.208Z,84.78
2023-04-25T07:29:24.755Z,83.35
2023-04-25T07:31:51.666Z,85.07
2023-04-25T07:34:20.378Z,85.35
2023-04-25T07:36:47.116Z,84.13
2023-04-25T07:39:15.667Z,83.24
2023-04-25T07:41:42.620Z,83.97
2023-04-25T07:44:13.969Z,83.37
2023-04-25T07:46:41.049Z,83.15
2023-04-25T07:49:08.304Z,82.49
2023-04-25T07:51:35.599Z,83.04
2023-04-25T07:54:07.460Z,82.73
2023-04-25T07:56:49.594Z,81.52
2023-04-25T07:59:19.455Z,78.87
2023-04-25T08:01:46.477Z,77.89
2023-04-25T08:04:13.561Z,77.66
2023-04-25T08:06:49.958Z,78.27
2023-04-25T08:09:22.877Z,78.36
2023-04-25T08:11:51.047Z,76.40
2023-04-25T08:14:22.047Z,75.49
2023-04-25T08:16:49.316Z,73.80
2023-04-25T08:19:16.548Z,74.37
2023-04-25T08:21:43.557Z,73.41
2023-04-25T08:24:15.304Z,72.51
2023-04-25T08:26:42.287Z,72.17
2023-04-25T08:29:12.920Z,71.23
2023-04-25T08:31:41.734Z,70.04
2023-04-25T08:34:09.120Z,66.21
2023-04-25T08:36:48.414Z,68.53
2023-04-25T08:39:23.049Z,65.29
2023-04-25T08:42:19.257Z,64.74
2023-04-25T08:44:48.416Z,63.43
2023-04-25T08:47:15.118Z,62.53
2023-04-25T08:49:47.699Z,63.68
2023-04-25T08:52:15.211Z,63.78
2023-04-25T08:54:45.373Z,59.97
2023-04-25T08:57:13.298Z,60.86
2023-04-25T08:59:44.074Z,59.63
2023-04-25T09:02:15.706Z,54.62
2023-04-25T09:04:43.802Z,56.02
2023-04-25T09:07:10.890Z,60.23
2023-04-25T09:09:38.719Z,61.12
2023-04-25T09:12:06.193Z,56.33
2023-04-25T09:14:33.191Z,57.18
2023-04-25T09:17:04.618Z,59.91
2023-04-25T09:19:46.405Z,54.17
2023-04-25T09:22:19.417Z,52.38
2023-04-25T09:24:51.029Z,52.13
2023-04-25T09:27:19.932Z,48.46
2023-04-25T09:29:48.635Z,51.62
2023-04-25T09:32:18.129Z,56.78
2023-04-25T09:34:49.360Z,61.54
2023-04-25T09:37:21.686Z,62.19
2023-04-25T09:40:14.480Z,66.11
2023-04-25T09:42:58.907Z,64.81
2023-04-25T09:45:26.041Z,65.61
2023-04-25T09:47:56.429Z,66.86
2023-04-25T09:50:27.011Z,62.82
2023-04-25T09:53:03.795Z,63.07
2023-04-25T09:55:35.140Z,65.34
2023-04-25T09:58:04.186Z,62.30
2023-04-25T10:00:31.844Z,54.68
2023-04-25T10:03:06.850Z,55.31
2023-04-25T10:06:00.060Z,52.65
2023-04-25T10:08:30.430Z,54.82
2023-04-25T10:10:57.182Z,53.88
2023-04-25T10:13:24.382Z,54.16
2023-04-25T10:15:52.457Z,50.90
2023-04-25T10:18:21.014Z,52.94
2023-04-25T10:20:47.706Z,49.07
2023-04-25T10:23:16.482Z,52.24
2023-04-25T10:25:43.478Z,51.56
2023-04-25T10:28:10.161Z,50.54
2023-04-25T10:30:36.840Z,50.71
2023-04-25T10:33:17.064Z,55.86
2023-04-25T10:35:46.063Z,52.51
2023-04-25T10:38:15.379Z,54.68
2023-04-25T10:41:03.546Z,54.12
2023-04-25T10:43:40.445Z,55.90
2023-04-25T10:46:20.410Z,56.81
2023-04-25T10:48:51.092Z,58.16
2023-04-25T10:51:18.815Z,56.98
2023-04-25T10:53:46.073Z,54.12
2023-04-25T10:56:17.561Z,52.59
2023-04-25T10:58:44.590Z,54.83
2023-04-25T11:01:11.561Z,56.53
2023-04-25T11:03:39.810Z,57.03
2023-04-25T11:06:08.356Z,57.48
2023-04-25T11:08:41.095Z,55.23
2023-04-25T11:11:09.366Z,52.66
2023-04-25T11:13:37.402Z,49.81
2023-04-25T11:16:12.593Z,50.74
2023-04-25T11:18:41.994Z,50.96
2023-04-25T11:21:08.662Z,49.93
2023-04-25T11:23:35.397Z,50.00
2023-04-25T11:26:02.440Z,48.98
2023-04-25T11:28:29.147Z,49.68
2023-04-25T11:30:57.190Z,46.90
2023-04-25T11:33:26.705Z,48.24
2023-04-25T11:35:54.438Z,43.59
2023-04-25T11:38:22.589Z,43.73
2023-04-25T11:40:53.598Z,46.85
2023-04-25T11:43:21.813Z,46.29
2023-04-25T11:45:49.136Z,46.05
2023-04-25T11:48:17.618Z,48.24
2023-04-25T11:50:44.730Z,47.65
2023-04-25T11:53:11.782Z,50.31
2023-04-25T11:55:38.859Z,53.86
2023-04-25T11:58:05.852Z,50.74
2023-04-25T12:00:32.939Z,48.21
2023-04-25T12:03:00.125Z,51.40
2023-04-25T12:05:32.591Z,48.13
2023-04-25T12:08:13.432Z,48.43
2023-04-25T12:10:41.593Z,49.68
2023-04-25T12:13:21.470Z,48.58
2023-04-25T12:15:48.504Z,46.94
2023-04-25T12:18:15.586Z,48.34
2023-04-25T12:20:44.111Z,50.57
2023-04-25T12:23:12.068Z,48.87
2023-04-25T12:25:39.596Z,49.32
2023-04-25T12:28:13.348Z,49.92
2023-04-25T12:30:56.119Z,52.54
2023-04-25T12:33:23.013Z,53.12
2023-04-25T12:35:51.111Z,52.01
2023-04-25T12:38:24.338Z,53.15
2023-04-25T12:40:51.090Z,52.91
2023-04-25T12:43:18.544Z,54.47
2023-04-25T12:45:45.608Z,50.53
2023-04-25T12:48:12.509Z,48.10
2023-04-25T12:50:39.315Z,49.85
2023-04-25T12:53:07.501Z,50.92
2023-04-25T12:55:34.250Z,57.18
2023-04-25T12:58:00.953Z,60.20
2023-04-25T13:00:27.762Z,59.15
2023-04-25T13:02:54.696Z,63.30
2023-04-25T13:05:21.503Z,62.96
2023-04-25T13:07:48.142Z,58.66
2023-04-25T13:10:16.660Z,58.48
2023-04-25T13:12:43.317Z,58.68
2023-04-25T13:15:12.228Z,59.90
2023-04-25T13:17:39.319Z,55.77
2023-04-25T13:20:09.930Z,57.01
2023-04-25T13:22:38.008Z,61.86
2023-04-25T13:25:05.085Z,60.93
2023-04-25T13:27:34.901Z,63.85
2023-04-25T13:30:02.390Z,66.32
2023-04-25T13:32:29.216Z,68.01
2023-04-25T13:34:57.010Z,69.83
2023-04-25T13:37:25.194Z,71.92
2023-04-25T13:39:52.137Z,71.89
2023-04-25T13:42:19.060Z,71.72
2023-04-25T13:44:47.362Z,71.87
2023-04-25T13:47:16.285Z,71.67
2023-04-25T13:49:42.985Z,71.76
2023-04-25T13:52:09.686Z,67.60
2023-04-25T13:54:36.392Z,62.40
2023-04-25T13:57:03.260Z,66.03
2023-04-25T13:59:30.060Z,62.55
2023-04-25T14:01:58.171Z,68.38
2023-04-25T14:04:25.032Z,65.77
2023-04-25T14:06:52.178Z,64.15
2023-04-25T14:09:20.645Z,65.07
2023-04-25T14:11:47.386Z,67.19
2023-04-25T14:14:16.701Z,67.00
2023-04-25T14:16:43.449Z,67.64
2023-04-25T14:19:11.555Z,67.36
2023-04-25T14:21:38.330Z,68.46
2023-04-25T14:24:05.949Z,68.85
2023-04-25T14:26:34.172Z,68.99
2023-04-25T14:29:00.896Z,66.62
2023-04-25T14:31:27.767Z,68.97
2023-04-25T14:33:56.293Z,66.85
2023-04-25T14:36:27.444Z,62.89
2023-04-25T14:38:54.084Z,63.85
2023-04-25T14:41:20.729Z,67.00
2023-04-25T14:43:47.399Z,65.68
2023-04-25T14:46:14.184Z,64.77
2023-04-25T14:48:41.032Z,63.69
2023-04-25T14:51:08.011Z,65.67
2023-04-25T14:53:35.976Z,66.54
2023-04-25T14:56:02.662Z,66.43
2023-04-25T14:58:29.372Z,66.33
2023-04-25T15:00:56.213Z,67.91
2023-04-25T15:03:23.165Z,65.64
2023-04-25T15:05:50.037Z,64.15
2023-04-25T15:08:16.688Z,66.67
2023-04-25T15:10:44.816Z,62.45
2023-04-25T15:13:11.691Z,61.50
2023-04-25T15:15:38.414Z,60.78
2023-04-25T15:18:05.401Z,62.92
2023-04-25T15:20:32.403Z,60.81
2023-04-25T15:22:59.093Z,58.87
2023-04-25T15:25:26.471Z,59.98
2023-04-25T15:27:54.542Z,59.18
2023-04-25T15:30:21.691Z,60.81
2023-04-25T15:32:48.760Z,60.51
2023-04-25T15:35:16.239Z,59.33
2023-04-25T15:37:43.143Z,61.94
2023-04-25T15:40:12.155Z,61.81
2023-04-25T15:42:39.190Z,60.99
2023-04-25T15:45:08.394Z,58.92
2023-04-25T15:47:35.942Z,59.36
2023-04-25T15:50:04.994Z,62.57
2023-04-25T15:52:31.811Z,62.22
2023-04-25T15:54:59.006Z,62.66
2023-04-25T15:57:25.976Z,65.06
2023-04-25T15:59:53.052Z,67.91
2023-04-25T16:02:21.088Z,70.23
2023-04-25T16:04:48.048Z,71.56
2023-04-25T16:07:15.193Z,70.73
2023-04-25T16:09:41.944Z,71.10
2023-04-25T16:12:09.973Z,72.15
2023-04-25T16:14:36.969Z,70.56
2023-04-25T16:17:03.916Z,70.48
2023-04-25T16:19:32.610Z,70.26
2023-04-25T16:21:59.789Z,68.85
2023-04-25T16:24:26.554Z,68.91
2023-04-25T16:26:53.357Z,69.23
2023-04-25T16:29:20.037Z,69.27
2023-04-25T16:31:47.585Z,69.90
2023-04-25T16:34:15.414Z,70.84
2023-04-25T16:36:43.557Z,69.83
2023-04-25T16:39:10.213Z,68.08
2023-04-25T16:41:37.142Z,69.21
2023-04-25T16:44:06.734Z,70.18
2023-04-25T16:46:33.445Z,69.43
2023-04-25T16:51:48.091Z,69.38
2023-04-25T16:54:14.737Z,69.89
2023-04-25T16:56:41.798Z,70.16
2023-04-25T16:59:08.638Z,71.98
2023-04-25T17:01:37.250Z,71.81
2023-04-25T17:04:04.073Z,73.21
2023-04-25T17:06:31.020Z,72.95
2023-04-25T17:08:59.113Z,73.33
2023-04-25T17:11:26.367Z,73.50
2023-04-25T17:13:53.275Z,74.12
2023-04-25T17:16:23.438Z,74.52
2023-04-25T17:18:53.246Z,74.29
2023-04-25T17:21:21.218Z,74.73
2023-04-25T17:23:48.113Z,75.36
2023-04-25T17:26:17.097Z,74.22
2023-04-25T17:28:49.702Z,74.56
2023-04-25T17:31:17.457Z,74.80
2023-04-25T17:33:44.164Z,74.62
2023-04-25T17:36:11.108Z,74.11
2023-04-25T17:38:39.055Z,73.28
2023-04-25T17:41:05.940Z,73.75
2023-04-25T17:46:21.542Z,72.91
2023-04-25T17:48:48.675Z,73.75
2023-04-25T17:51:15.613Z,74.71
2023-04-25T17:53:42.395Z,73.41
2023-04-25T17:56:25.359Z,73.96
2023-04-25T17:58:55.195Z,74.64
2023-04-25T18:01:22.276Z,75.70
2023-04-25T18:03:49.973Z,75.05
2023-04-25T18:06:18.144Z,75.83
2023-04-25T18:08:45.151Z,75.83
2023-04-25T18:11:12.359Z,74.90
2023-04-25T18:13:40.219Z,75.04
2023-04-25T18:16:08.590Z,75.76
2023-04-25T18:18:55.369Z,76.87
2023-04-25T18:21:22.342Z,76.73
2023-04-25T18:23:49.299Z,77.60
2023-04-25T18:26:16.437Z,76.84
2023-04-25T18:28:43.241Z,77.59
2023-04-25T18:31:11.743Z,77.81
2023-04-25T18:33:38.821Z,77.10
2023-04-25T18:36:05.957Z,77.97
2023-04-25T18:38:36.080Z,77.59
2023-04-25T18:41:21.089Z,77.86
2023-04-25T18:43:52.241Z,77.90
2023-04-25T18:46:22.745Z,78.31
2023-04-25T18:48:51.623Z,81.33
2023-04-25T18:51:18.808Z,79.85
2023-04-25T18:53:46.318Z,79.68
2023-04-25T18:56:14.728Z,80.30
2023-04-25T18:58:41.646Z,80.03
2023-04-25T19:01:09.280Z,79.43
2023-04-25T19:03:38.260Z,78.95
2023-04-25T19:06:05.277Z,78.79
2023-04-25T19:08:33.126Z,79.71
2023-04-25T19:11:07.595Z,79.52
2023-04-25T19:13:41.486Z,79.58
2023-04-25T19:16:08.991Z,80.82
2023-04-25T19:18:37.398Z,84.66
2023-04-25T19:21:06.629Z,86.39
2023-04-25T19:23:33.414Z,83.92
2023-04-25T19:26:00.295Z,85.22
2023-04-25T19:28:27.476Z,84.88
2023-04-25T19:30:54.152Z,83.98
2023-04-25T19:33:21.556Z,86.33
2023-04-25T19:35:49.565Z,86.33
2023-04-25T19:38:17.077Z,87.68
2023-04-25T19:40:44.045Z,87.67
2023-04-25T19:43:11.238Z,85.77
2023-04-25T19:45:37.845Z,83.49
2023-04-25T19:48:05.090Z,82.81
2023-04-25T19:50:32.612Z,83.17
2023-04-25T19:53:01.378Z,83.66
2023-04-25T19:55:28.580Z,82.57
2023-04-25T19:57:55.507Z,81.28
2023-04-25T20:00:22.552Z,81.89
2023-04-25T20:02:49.626Z,84.44
2023-04-25T20:05:17.252Z,86.88
2023-04-25T20:07:44.598Z,88.98
2023-04-25T20:10:14.139Z,87.29
2023-04-25T20:12:41.079Z,88.75
2023-04-25T20:15:09.638Z,90.70
2023-04-25T20:17:37.043Z,93.05
2023-04-25T20:20:06.309Z,92.86
2023-04-25T20:22:37.661Z,93.32
2023-04-25T20:25:04.735Z,93.53
2023-04-25T20:27:33.186Z,93.05
2023-04-25T20:30:04.241Z,92.69
2023-04-25T20:32:32.263Z,89.96
2023-04-25T20:34:58.909Z,90.92
2023-04-25T20:37:26.631Z,91.38
2023-04-25T20:39:53.267Z,92.74
2023-04-25T20:42:20.032Z,93.61
2023-04-25T20:44:49.239Z,93.71
2023-04-25T20:47:16.693Z,93.60
2023-04-25T20:49:43.330Z,92.79
2023-04-25T20:52:09.991Z,92.75
2023-04-25T20:54:37.518Z,92.44
2023-04-25T20:57:04.396Z,92.46
2023-04-25T20:59:31.205Z,91.90
2023-04-25T21:01:59.372Z,91.35
2023-04-25T21:04:26.288Z,88.68
2023-04-25T21:06:53.016Z,87.67
2023-04-25T21:09:19.838Z,89.99
2023-04-25T21:11:46.467Z,91.98
2023-04-25T21:14:13.249Z,93.10
2023-04-25T21:16:40.906Z,93.94
2023-04-25T21:19:09.591Z,93.56
2023-04-25T21:21:36.518Z,92.63
2023-04-25T21:24:03.755Z,93.05
2023-04-25T21:26:31.311Z,92.80
2023-04-25T21:28:57.990Z,91.64
2023-04-25T21:31:25.189Z,89.56
2023-04-25T21:33:51.905Z,88.42
2023-04-25T21:36:19.998Z,87.81
2023-04-25T21:38:46.750Z,87.53
2023-04-25T21:41:13.460Z,86.62
2023-04-25T21:43:40.066Z,90.59
2023-04-25T21:46:22.421Z,93.87
2023-04-25T21:48:50.739Z,95.27
2023-04-25T21:51:17.859Z,95.76
2023-04-25T21:53:45.895Z,93.87
2023-04-25T21:56:12.559Z,91.57
2023-04-25T21:58:39.239Z,92.37
2023-04-25T22:01:06.018Z,93.70
2023-04-25T22:03:33.087Z,91.87
2023-04-25T22:05:59.957Z,91.68
2023-04-25T22:08:26.826Z,89.43
2023-04-25T22:10:57.948Z,88.16
2023-04-25T22:13:24.570Z,87.78
2023-04-25T22:15:51.215Z,90.29
2023-04-25T22:18:19.797Z,87.96
2023-04-25T22:20:46.578Z,91.70
2023-04-25T22:23:13.825Z,90.32
2023-04-25T22:25:40.533Z,91.17
2023-04-25T22:28:08.722Z,93.57
2023-04-25T22:30:35.369Z,94.95
2023-04-25T22:33:02.176Z,93.75
2023-04-25T22:35:29.133Z,91.51
2023-04-25T22:37:55.842Z,89.66
2023-04-25T22:40:22.708Z,89.10
2023-04-25T22:42:49.486Z,88.10
2023-04-25T22:45:17.600Z,88.06
2023-04-25T22:47:44.395Z,87.74
2023-04-25T22:50:16.581Z,87.39
2023-04-25T22:52:43.646Z,86.25
2023-04-25T22:55:11.146Z,86.14
2023-04-25T22:57:40.689Z,87.53
2023-04-25T23:00:19.681Z,91.83
2023-04-25T23:02:48.865Z,93.51
2023-04-25T23:05:15.849Z,92.98
2023-04-25T23:07:43.690Z,90.61
2023-04-25T23:10:10.762Z,88.72
2023-04-25T23:12:37.831Z,88.10
2023-04-25T23:15:05.420Z,87.59
2023-04-25T23:17:32.135Z,90.80
2023-04-25T23:20:00.227Z,93.54
2023-04-25T23:22:27.026Z,91.99
2023-04-25T23:24:53.717Z,90.19
2023-04-25T23:27:20.343Z,92.40
2023-04-25T23:29:53.270Z,94.30
2023-04-25T23:32:19.969Z,94.97
2023-04-25T23:34:46.631Z,93.69
2023-04-25T23:37:14.760Z,91.28
2023-04-25T23:39:41.406Z,89.22
2023-04-25T23:42:08.083Z,91.35
2023-04-25T23:44:34.724Z,95.85
2023-04-25T23:47:01.553Z,95.77
2023-04-25T23:49:28.140Z,93.99
2023-04-25T23:51:54.854Z,91.67
2023-04-25T23:54:22.843Z,92.29
2023-04-25T23:56:49.598Z,96.47
2023-04-25T23:59:16.294Z,98.14
